createdAt,value
2019-03-20T00:00:32.653Z,71.89
2019-03-20T00:01:43.191Z,71.58
2019-03-20T00:02:33.627Z,71.68
2019-03-20T00:03:32.611Z,71.68
2019-03-20T00:04:32.643Z,71.89
2019-03-20T00:05:32.740Z,71.89
2019-03-20T00:06:32.580Z,71.99
2019-03-20T00:07:32.598Z,71.58
2019-03-20T00:08:32.567Z,71.89
2019-03-20T00:09:32.557Z,71.78
2019-03-20T00:10:32.539Z,72.30
2019-03-20T00:11:32.526Z,72.20
2019-03-20T00:12:32.517Z,72.20
2019-03-20T00:13:32.505Z,72.20
2019-03-20T00:14:32.532Z,72.41
2019-03-20T00:15:32.495Z,72.30
2019-03-20T00:16:32.480Z,72.41
2019-03-20T00:17:32.461Z,71.99
2019-03-20T00:18:32.451Z,71.99
2019-03-20T00:19:32.442Z,71.99
2019-03-20T00:20:32.430Z,72.09
2019-03-20T00:21:32.421Z,72.30
2019-03-20T00:22:32.419Z,71.89
2019-03-20T00:23:32.402Z,72.41
2019-03-20T00:24:32.386Z,72.62
2019-03-20T00:25:32.392Z,72.62
2019-03-20T00:26:32.375Z,72.83
2019-03-20T00:27:32.359Z,72.83
2019-03-20T00:28:32.348Z,72.51
2019-03-20T00:29:32.365Z,72.30
2019-03-20T00:30:32.327Z,71.99
2019-03-20T00:31:32.315Z,71.99
2019-03-20T00:32:32.304Z,71.78
2019-03-20T00:33:32.298Z,71.99
2019-03-20T00:34:32.280Z,71.99
2019-03-20T00:35:32.288Z,71.78
2019-03-20T00:36:32.325Z,72.09
2019-03-20T00:37:32.249Z,71.78
2019-03-20T00:38:32.236Z,71.68
2019-03-20T00:39:32.225Z,71.68
2019-03-20T00:40:32.227Z,71.68
2019-03-20T00:41:32.211Z,72.20
2019-03-20T00:42:32.199Z,72.30
2019-03-20T00:43:32.202Z,71.68
2019-03-20T00:44:32.179Z,71.78
2019-03-20T00:45:32.170Z,71.78
2019-03-20T00:46:32.157Z,71.68
2019-03-20T00:47:32.140Z,71.68
2019-03-20T00:48:32.138Z,71.54
2019-03-20T00:49:32.121Z,71.58
2019-03-20T00:50:32.121Z,71.68
2019-03-20T00:51:32.316Z,71.78
2019-03-20T00:52:32.099Z,71.33
2019-03-20T00:53:32.117Z,71.33
2019-03-20T00:54:32.096Z,71.37
2019-03-20T00:55:32.066Z,71.23
2019-03-20T00:56:32.047Z,71.47
2019-03-20T00:57:32.039Z,71.68
2019-03-20T00:58:32.023Z,71.68
2019-03-20T00:59:32.021Z,71.68
2019-03-20T01:00:32.015Z,71.99
2019-03-20T01:01:32.001Z,71.68
2019-03-20T01:02:31.992Z,71.78
2019-03-20T01:03:31.975Z,71.68
2019-03-20T01:04:31.960Z,72.20
2019-03-20T01:05:31.962Z,72.51
2019-03-20T01:06:31.938Z,71.99
2019-03-20T01:07:31.932Z,71.89
2019-03-20T01:08:31.922Z,72.20
2019-03-20T01:09:31.914Z,72.41
2019-03-20T01:10:31.919Z,73.03
2019-03-20T01:11:31.890Z,72.41
2019-03-20T01:12:31.877Z,72.83
2019-03-20T01:13:31.964Z,72.86
2019-03-20T01:14:31.856Z,73.49
2019-03-20T01:15:31.856Z,72.83
2019-03-20T01:16:31.834Z,73.76
2019-03-20T01:17:31.828Z,73.76
2019-03-20T01:18:31.813Z,73.45
2019-03-20T01:19:31.811Z,72.93
2019-03-20T01:20:31.817Z,72.83
2019-03-20T01:21:31.807Z,72.51
2019-03-20T01:22:31.796Z,73.14
2019-03-20T01:23:31.759Z,73.45
2019-03-20T01:24:31.776Z,72.83
2019-03-20T01:25:31.764Z,72.93
2019-03-20T01:26:31.745Z,71.78
2019-03-20T01:27:31.729Z,72.41
2019-03-20T01:28:31.703Z,72.30
2019-03-20T01:29:31.773Z,72.20
2019-03-20T01:30:31.693Z,71.99
2019-03-20T01:31:31.708Z,72.20
2019-03-20T01:32:31.661Z,72.34
2019-03-20T01:33:31.652Z,72.20
2019-03-20T01:34:31.652Z,71.89
2019-03-20T01:35:31.784Z,71.78
2019-03-20T01:36:31.625Z,71.99
2019-03-20T01:37:31.609Z,71.78
2019-03-20T01:38:31.597Z,71.71
2019-03-20T01:39:31.588Z,71.58
2019-03-20T01:40:31.581Z,71.78
2019-03-20T01:41:37.909Z,71.89
2019-03-20T01:42:32.571Z,71.78
2019-03-20T01:43:31.569Z,71.71
2019-03-20T01:44:31.540Z,71.89
2019-03-20T01:45:31.532Z,71.81
2019-03-20T01:46:31.519Z,71.71
2019-03-20T01:47:31.510Z,72.24
2019-03-20T01:48:31.494Z,72.24
2019-03-20T01:49:31.483Z,72.44
2019-03-20T01:50:31.473Z,72.44
2019-03-20T01:51:31.460Z,72.34
2019-03-20T01:52:31.449Z,72.44
2019-03-20T01:53:31.440Z,72.34
2019-03-20T01:54:31.426Z,72.47
2019-03-20T01:55:31.420Z,72.16
2019-03-20T01:56:31.429Z,72.06
2019-03-20T01:57:31.406Z,72.27
2019-03-20T01:58:31.395Z,72.65
2019-03-20T01:59:31.371Z,72.68
2019-03-20T02:00:31.388Z,72.58
2019-03-20T02:01:31.365Z,72.68
2019-03-20T02:02:31.358Z,72.78
2019-03-20T02:03:31.356Z,73.21
2019-03-20T02:04:31.425Z,72.89
2019-03-20T02:05:36.388Z,72.78
2019-03-20T02:06:32.317Z,73.03
2019-03-20T02:07:31.287Z,72.58
2019-03-20T02:08:31.281Z,73.10
2019-03-20T02:09:31.276Z,73.00
2019-03-20T02:10:31.265Z,72.89
2019-03-20T02:11:31.287Z,73.31
2019-03-20T02:12:31.238Z,73.31
2019-03-20T02:13:31.230Z,73.83
2019-03-20T02:14:31.215Z,73.45
2019-03-20T02:15:38.667Z,73.86
2019-03-20T02:16:32.203Z,73.76
2019-03-20T02:17:31.181Z,74.07
2019-03-20T02:18:31.172Z,73.97
2019-03-20T02:19:31.258Z,73.34
2019-03-20T02:20:31.202Z,73.13
2019-03-20T02:21:31.176Z,74.28
2019-03-20T02:22:31.157Z,73.97
2019-03-20T02:23:31.131Z,74.07
2019-03-20T02:24:31.117Z,73.66
2019-03-20T02:25:32.447Z,73.97
2019-03-20T02:26:31.226Z,73.69
2019-03-20T02:27:31.078Z,73.55
2019-03-20T02:28:31.068Z,73.97
2019-03-20T02:29:31.075Z,73.55
2019-03-20T02:30:31.050Z,74.49
2019-03-20T02:31:31.050Z,74.49
2019-03-20T02:32:31.021Z,74.70
2019-03-20T02:33:31.020Z,74.70
2019-03-20T02:34:31.010Z,74.38
2019-03-20T02:35:30.991Z,74.84
2019-03-20T02:36:30.991Z,73.97
2019-03-20T02:37:30.980Z,74.70
2019-03-20T02:38:30.966Z,74.84
2019-03-20T02:39:30.949Z,74.21
2019-03-20T02:40:30.939Z,74.60
2019-03-20T02:41:30.967Z,74.32
2019-03-20T02:42:30.914Z,75.01
2019-03-20T02:43:30.916Z,74.60
2019-03-20T02:44:30.894Z,74.91
2019-03-20T02:45:30.888Z,74.70
2019-03-20T02:46:30.881Z,74.84
2019-03-20T02:47:30.862Z,74.91
2019-03-20T02:48:30.864Z,74.84
2019-03-20T02:49:30.841Z,74.28
2019-03-20T02:50:30.831Z,75.12
2019-03-20T02:51:30.844Z,74.91
2019-03-20T02:52:30.812Z,74.91
2019-03-20T02:53:30.802Z,74.80
2019-03-20T02:54:30.798Z,75.05
2019-03-20T02:55:30.797Z,74.94
2019-03-20T02:56:30.780Z,74.91
2019-03-20T02:57:30.777Z,74.80
2019-03-20T02:58:30.774Z,74.60
2019-03-20T02:59:30.750Z,74.84
2019-03-20T03:00:30.730Z,74.84
2019-03-20T03:01:30.722Z,74.80
2019-03-20T03:02:30.704Z,74.60
2019-03-20T03:03:30.706Z,74.70
2019-03-20T03:04:30.695Z,74.28
2019-03-20T03:05:30.714Z,73.97
2019-03-20T03:06:30.695Z,74.52
2019-03-20T03:07:30.650Z,74.52
2019-03-20T03:08:30.638Z,74.52
2019-03-20T03:09:30.636Z,74.84
2019-03-20T03:10:30.755Z,74.84
2019-03-20T03:11:30.614Z,74.94
2019-03-20T03:12:30.601Z,75.26
2019-03-20T03:13:30.628Z,75.26
2019-03-20T03:14:30.605Z,75.15
2019-03-20T03:15:30.591Z,75.36
2019-03-20T03:16:30.553Z,75.36
2019-03-20T03:17:30.647Z,75.36
2019-03-20T03:18:30.545Z,75.46
2019-03-20T03:19:30.522Z,75.32
2019-03-20T03:20:30.516Z,75.26
2019-03-20T03:21:30.509Z,75.46
2019-03-20T03:22:30.490Z,75.36
2019-03-20T03:23:30.511Z,75.05
2019-03-20T03:24:30.481Z,75.12
2019-03-20T03:25:30.461Z,75.01
2019-03-20T03:26:30.455Z,75.12
2019-03-20T03:27:30.439Z,75.46
2019-03-20T03:28:30.426Z,75.53
2019-03-20T03:29:30.425Z,75.74
2019-03-20T03:30:30.419Z,75.78
2019-03-20T03:31:30.413Z,75.57
2019-03-20T03:32:30.447Z,75.22
2019-03-20T03:33:30.384Z,75.22
2019-03-20T03:34:30.368Z,75.22
2019-03-20T03:35:30.724Z,74.91
2019-03-20T03:36:30.346Z,75.22
2019-03-20T03:37:30.347Z,74.80
2019-03-20T03:38:30.334Z,74.49
2019-03-20T03:39:30.428Z,74.80
2019-03-20T03:40:30.305Z,74.80
2019-03-20T03:41:30.287Z,74.07
2019-03-20T03:42:30.280Z,74.91
2019-03-20T03:43:30.268Z,74.70
2019-03-20T03:44:30.261Z,74.18
2019-03-20T03:45:30.251Z,74.60
2019-03-20T03:46:30.245Z,74.80
2019-03-20T03:47:30.236Z,74.28
2019-03-20T03:48:30.220Z,74.28
2019-03-20T03:49:30.222Z,74.49
2019-03-20T03:50:30.194Z,74.28
2019-03-20T03:51:30.183Z,74.38
2019-03-20T03:52:30.180Z,74.60
2019-03-20T03:53:30.170Z,74.70
2019-03-20T03:54:30.151Z,74.70
2019-03-20T03:55:30.161Z,73.45
2019-03-20T03:56:30.136Z,73.97
2019-03-20T03:57:30.128Z,73.66
2019-03-20T03:58:32.779Z,73.72
2019-03-20T03:59:30.104Z,73.72
2019-03-20T04:00:30.088Z,73.72
2019-03-20T04:01:30.207Z,74.60
2019-03-20T04:02:30.075Z,74.28
2019-03-20T04:03:30.057Z,74.77
2019-03-20T04:04:30.042Z,74.80
2019-03-20T04:05:30.040Z,74.35
2019-03-20T04:06:35.373Z,74.28
2019-03-20T04:07:31.021Z,74.70
2019-03-20T04:08:30.002Z,74.28
2019-03-20T04:09:30.037Z,74.18
2019-03-20T04:10:29.980Z,74.38
2019-03-20T04:11:29.970Z,74.28
2019-03-20T04:12:29.963Z,74.49
2019-03-20T04:13:29.960Z,74.91
2019-03-20T04:14:29.945Z,74.91
2019-03-20T04:15:29.927Z,74.80
2019-03-20T04:16:29.942Z,74.84
2019-03-20T04:17:29.924Z,74.70
2019-03-20T04:18:29.900Z,74.80
2019-03-20T04:19:29.892Z,75.01
2019-03-20T04:20:29.873Z,75.22
2019-03-20T04:21:29.866Z,74.18
2019-03-20T04:22:29.860Z,74.38
2019-03-20T04:23:29.850Z,74.80
2019-03-20T04:24:29.847Z,75.22
2019-03-20T04:25:29.819Z,75.12
2019-03-20T04:26:29.812Z,75.12
2019-03-20T04:27:29.811Z,75.01
2019-03-20T04:28:29.800Z,75.01
2019-03-20T04:29:29.775Z,75.12
2019-03-20T04:30:29.768Z,75.22
2019-03-20T04:31:29.772Z,75.12
2019-03-20T04:32:29.815Z,74.80
2019-03-20T04:33:29.832Z,74.91
2019-03-20T04:34:29.729Z,74.80
2019-03-20T04:35:29.740Z,74.91
2019-03-20T04:36:29.708Z,74.70
2019-03-20T04:37:29.695Z,74.70
2019-03-20T04:38:29.773Z,75.32
2019-03-20T04:39:29.692Z,75.12
2019-03-20T04:40:29.665Z,75.12
2019-03-20T04:41:29.659Z,74.60
2019-03-20T04:42:29.646Z,74.80
2019-03-20T04:43:29.661Z,74.49
2019-03-20T04:44:29.646Z,74.80
2019-03-20T04:45:29.605Z,74.70
2019-03-20T04:46:29.606Z,74.66
2019-03-20T04:47:29.583Z,74.87
2019-03-20T04:48:29.582Z,74.70
2019-03-20T04:49:29.613Z,75.01
2019-03-20T04:50:29.564Z,75.01
2019-03-20T04:51:29.544Z,75.01
2019-03-20T04:52:29.531Z,75.18
2019-03-20T04:53:29.535Z,75.22
2019-03-20T04:54:29.509Z,75.08
2019-03-20T04:55:29.535Z,74.70
2019-03-20T04:56:29.489Z,74.80
2019-03-20T04:57:29.484Z,74.80
2019-03-20T04:58:29.482Z,74.60
2019-03-20T04:59:29.470Z,74.80
2019-03-20T05:00:29.653Z,74.49
2019-03-20T05:01:29.437Z,74.49
2019-03-20T05:02:29.427Z,75.12
2019-03-20T05:03:29.425Z,74.70
2019-03-20T05:04:29.408Z,74.80
2019-03-20T05:05:29.396Z,75.22
2019-03-20T05:06:29.393Z,75.22
2019-03-20T05:07:29.414Z,75.01
2019-03-20T05:08:29.371Z,75.12
2019-03-20T05:09:29.353Z,75.12
2019-03-20T05:10:29.338Z,75.01
2019-03-20T05:11:29.358Z,75.22
2019-03-20T05:12:29.329Z,75.43
2019-03-20T05:13:29.315Z,75.26
2019-03-20T05:14:29.298Z,75.26
2019-03-20T05:15:29.289Z,75.36
2019-03-20T05:16:29.284Z,75.36
2019-03-20T05:17:29.265Z,75.36
2019-03-20T05:18:29.261Z,75.26
2019-03-20T05:19:29.244Z,75.78
2019-03-20T05:20:29.230Z,75.78
2019-03-20T05:21:29.224Z,75.67
2019-03-20T05:22:29.231Z,75.98
2019-03-20T05:23:29.209Z,75.78
2019-03-20T05:24:29.200Z,75.88
2019-03-20T05:25:29.187Z,76.02
2019-03-20T05:26:29.227Z,76.12
2019-03-20T05:27:29.223Z,76.23
2019-03-20T05:28:29.161Z,76.23
2019-03-20T05:29:29.139Z,76.44
2019-03-20T05:30:29.149Z,76.12
2019-03-20T05:31:29.121Z,76.54
2019-03-20T05:32:29.121Z,76.44
2019-03-20T05:33:29.116Z,76.75
2019-03-20T05:34:29.101Z,77.00
2019-03-20T05:35:29.082Z,77.38
2019-03-20T05:36:29.060Z,77.62
2019-03-20T05:37:29.151Z,77.41
2019-03-20T05:38:29.056Z,77.51
2019-03-20T05:39:29.050Z,77.73
2019-03-20T05:40:29.022Z,77.83
2019-03-20T05:41:29.016Z,77.94
2019-03-20T05:42:28.998Z,78.04
2019-03-20T05:43:29.000Z,78.35
2019-03-20T05:44:29.013Z,78.35
2019-03-20T05:45:28.970Z,78.77
2019-03-20T05:46:28.953Z,78.88
2019-03-20T05:47:28.972Z,78.98
2019-03-20T05:48:28.964Z,78.98
2019-03-20T05:49:28.994Z,78.84
2019-03-20T05:50:29.022Z,78.84
2019-03-20T05:51:28.942Z,79.29
2019-03-20T05:52:28.903Z,79.29
2019-03-20T05:53:28.936Z,79.15
2019-03-20T05:54:28.966Z,79.05
2019-03-20T05:55:28.907Z,78.94
2019-03-20T05:56:28.860Z,78.32
2019-03-20T05:57:28.839Z,78.94
2019-03-20T05:58:28.830Z,78.21
2019-03-20T05:59:29.106Z,78.42
2019-03-20T06:00:28.818Z,78.32
2019-03-20T06:01:28.815Z,78.00
2019-03-20T06:02:28.814Z,78.07
2019-03-20T06:03:28.809Z,77.86
2019-03-20T06:04:28.778Z,77.97
2019-03-20T06:05:28.833Z,77.76
2019-03-20T06:06:28.744Z,77.76
2019-03-20T06:07:28.739Z,77.66
2019-03-20T06:08:31.194Z,77.45
2019-03-20T06:09:28.793Z,77.45
2019-03-20T06:10:28.708Z,77.55
2019-03-20T06:11:28.713Z,77.66
2019-03-20T06:12:28.692Z,77.45
2019-03-20T06:13:28.674Z,77.55
2019-03-20T06:14:28.835Z,77.45
2019-03-20T06:15:28.672Z,77.66
2019-03-20T06:16:28.640Z,77.66
2019-03-20T06:17:28.631Z,77.51
2019-03-20T06:18:28.625Z,77.76
2019-03-20T06:19:28.621Z,77.41
2019-03-20T06:20:28.604Z,77.31
2019-03-20T06:21:28.623Z,77.00
2019-03-20T06:22:28.595Z,76.79
2019-03-20T06:23:28.564Z,76.79
2019-03-20T06:24:28.569Z,76.26
2019-03-20T06:25:28.569Z,76.37
2019-03-20T06:26:28.666Z,76.16
2019-03-20T06:27:28.528Z,75.95
2019-03-20T06:28:28.529Z,75.60
2019-03-20T06:29:28.557Z,75.60
2019-03-20T06:30:28.487Z,75.71
2019-03-20T06:31:28.479Z,75.60
2019-03-20T06:32:28.499Z,75.08
2019-03-20T06:33:28.453Z,75.18
2019-03-20T06:34:28.447Z,74.77
2019-03-20T06:35:28.440Z,74.63
2019-03-20T06:36:28.497Z,74.84
2019-03-20T06:37:32.477Z,74.74
2019-03-20T06:38:28.527Z,74.49
2019-03-20T06:39:28.528Z,74.42
2019-03-20T06:40:28.381Z,74.29
2019-03-20T06:41:28.371Z,74.18
2019-03-20T06:42:28.368Z,74.07
2019-03-20T06:43:28.547Z,74.39
2019-03-20T06:44:28.410Z,73.97
2019-03-20T06:45:28.493Z,73.21
2019-03-20T06:46:28.375Z,73.42
2019-03-20T06:47:28.304Z,73.52
2019-03-20T06:48:28.329Z,73.52
2019-03-20T06:49:28.304Z,73.63
2019-03-20T06:50:28.967Z,73.69
2019-03-20T06:51:28.311Z,73.07
2019-03-20T06:52:28.299Z,72.24
2019-03-20T06:53:28.254Z,72.10
2019-03-20T06:54:28.251Z,72.00
2019-03-20T06:55:28.322Z,72.03
2019-03-20T06:56:28.211Z,72.31
2019-03-20T06:57:28.200Z,72.10
2019-03-20T06:58:28.193Z,72.41
2019-03-20T06:59:28.178Z,71.55
2019-03-20T07:00:28.178Z,71.65
2019-03-20T07:01:28.229Z,71.65
2019-03-20T07:02:28.166Z,71.86
2019-03-20T07:03:28.138Z,71.86
2019-03-20T07:04:28.128Z,71.55
2019-03-20T07:05:28.198Z,71.10
2019-03-20T07:06:28.105Z,70.89
2019-03-20T07:07:28.124Z,70.68
2019-03-20T07:08:28.084Z,69.96
2019-03-20T07:09:28.070Z,70.17
2019-03-20T07:10:28.070Z,70.68
2019-03-20T07:11:28.073Z,69.43
2019-03-20T07:12:28.057Z,69.09
2019-03-20T07:13:28.035Z,69.51
2019-03-20T07:14:28.061Z,69.51
2019-03-20T07:15:28.041Z,69.30
2019-03-20T07:16:27.995Z,69.40
2019-03-20T07:17:27.986Z,68.78
2019-03-20T07:18:27.976Z,68.75
2019-03-20T07:19:27.970Z,68.13
2019-03-20T07:20:28.021Z,67.61
2019-03-20T07:21:27.946Z,67.40
2019-03-20T07:22:27.936Z,67.40
2019-03-20T07:23:27.923Z,67.30
2019-03-20T07:24:27.913Z,66.88
2019-03-20T07:25:27.906Z,66.75
2019-03-20T07:26:28.777Z,67.47
2019-03-20T07:27:28.018Z,67.99
2019-03-20T07:28:27.881Z,67.47
2019-03-20T07:29:27.868Z,67.47
2019-03-20T07:30:27.848Z,68.07
2019-03-20T07:31:27.860Z,66.41
2019-03-20T07:32:29.996Z,66.09
2019-03-20T07:33:27.827Z,66.09
2019-03-20T07:34:27.806Z,66.20
2019-03-20T07:35:27.794Z,66.38
2019-03-20T07:36:27.795Z,65.23
2019-03-20T07:37:27.807Z,65.86
2019-03-20T07:38:27.773Z,65.75
2019-03-20T07:39:27.757Z,65.55
2019-03-20T07:40:27.775Z,65.44
2019-03-20T07:41:27.735Z,65.23
2019-03-20T07:42:27.730Z,65.93
2019-03-20T07:43:27.750Z,65.72
2019-03-20T07:44:27.734Z,64.89
2019-03-20T07:45:27.692Z,64.37
2019-03-20T07:46:27.694Z,64.55
2019-03-20T07:47:27.685Z,64.97
2019-03-20T07:48:27.665Z,64.65
2019-03-20T07:49:27.698Z,61.55
2019-03-20T07:50:27.658Z,62.37
2019-03-20T07:51:27.635Z,63.20
2019-03-20T07:52:27.616Z,62.99
2019-03-20T07:53:27.607Z,63.10
2019-03-20T07:54:27.596Z,62.58
2019-03-20T07:55:27.597Z,63.28
2019-03-20T07:56:27.621Z,63.90
2019-03-20T07:57:27.565Z,63.07
2019-03-20T07:58:27.564Z,62.84
2019-03-20T07:59:27.547Z,62.73
2019-03-20T08:00:27.541Z,61.18
2019-03-20T08:01:27.545Z,61.67
2019-03-20T08:02:27.510Z,61.25
2019-03-20T08:03:27.499Z,61.05
2019-03-20T08:04:27.494Z,59.39
2019-03-20T08:05:29.440Z,59.80
2019-03-20T08:06:27.482Z,59.57
2019-03-20T08:07:27.535Z,59.55
2019-03-20T08:08:27.478Z,59.34
2019-03-20T08:09:27.451Z,57.79
2019-03-20T08:10:27.428Z,57.45
2019-03-20T08:11:27.565Z,57.45
2019-03-20T08:12:27.402Z,57.32
2019-03-20T08:13:27.395Z,56.60
2019-03-20T08:14:27.381Z,56.81
2019-03-20T08:15:27.374Z,57.09
2019-03-20T08:16:27.393Z,55.72
2019-03-20T08:17:27.348Z,56.13
2019-03-20T08:18:27.338Z,54.86
2019-03-20T08:19:27.327Z,53.91
2019-03-20T08:20:27.317Z,52.66
2019-03-20T08:21:27.315Z,51.93
2019-03-20T08:22:27.311Z,52.11
2019-03-20T08:23:27.289Z,50.26
2019-03-20T08:24:27.297Z,51.14
2019-03-20T08:25:27.267Z,51.01
2019-03-20T08:26:27.272Z,49.04
2019-03-20T08:27:27.248Z,47.67
2019-03-20T08:28:27.234Z,45.19
2019-03-20T08:29:27.234Z,45.66
2019-03-20T08:30:27.216Z,45.13
2019-03-20T08:31:27.218Z,44.37
2019-03-20T08:32:27.190Z,44.24
2019-03-20T08:33:27.256Z,43.08
2019-03-20T08:34:27.167Z,41.93
2019-03-20T08:35:27.156Z,40.69
2019-03-20T08:36:27.150Z,40.24
2019-03-20T08:37:27.132Z,37.57
2019-03-20T08:38:27.130Z,34.48
2019-03-20T08:39:27.117Z,33.04
2019-03-20T08:40:27.131Z,30.68
2019-03-20T08:41:27.119Z,30.77
2019-03-20T08:42:41.688Z,32.17
2019-03-20T08:43:27.085Z,31.54
2019-03-20T08:44:27.076Z,29.60
2019-03-20T08:45:27.064Z,30.09
2019-03-20T08:46:27.064Z,30.38
2019-03-20T08:47:48.072Z,28.13
2019-03-20T08:48:27.050Z,29.94
2019-03-20T08:49:27.018Z,30.25
2019-03-20T08:50:26.994Z,29.02
2019-03-20T08:51:26.993Z,27.60
2019-03-20T08:52:26.979Z,28.39
2019-03-20T08:53:26.978Z,29.39
2019-03-20T08:54:26.948Z,29.50
2019-03-20T08:55:26.945Z,28.37
2019-03-20T08:56:26.956Z,28.77
2019-03-20T08:57:26.941Z,28.06
2019-03-20T08:58:47.937Z,28.27
2019-03-20T08:59:26.963Z,28.45
2019-03-20T09:00:26.921Z,27.75
2019-03-20T09:01:28.960Z,26.03
2019-03-20T09:02:26.864Z,26.93
2019-03-20T09:03:27.007Z,26.82
2019-03-20T09:04:26.844Z,28.14
2019-03-20T09:05:26.841Z,29.05
2019-03-20T09:06:26.823Z,28.12
2019-03-20T09:07:26.806Z,25.80
2019-03-20T09:08:29.601Z,27.32
2019-03-20T09:09:26.784Z,27.91
2019-03-20T09:10:26.841Z,26.29
2019-03-20T09:11:26.770Z,25.28
2019-03-20T09:12:26.769Z,27.50
2019-03-20T09:13:26.742Z,26.47
2019-03-20T09:14:26.792Z,24.85
2019-03-20T09:15:26.721Z,25.05
2019-03-20T09:16:27.385Z,25.56
2019-03-20T09:17:26.743Z,24.87
2019-03-20T09:18:26.692Z,24.36
2019-03-20T09:19:26.678Z,24.87
2019-03-20T09:20:26.686Z,25.59
2019-03-20T09:21:26.687Z,24.87
2019-03-20T09:22:26.662Z,21.83
2019-03-20T09:23:26.677Z,23.56
2019-03-20T09:24:26.626Z,26.19
2019-03-20T09:25:26.618Z,25.48
2019-03-20T09:26:26.607Z,24.17
2019-03-20T09:27:26.610Z,23.77
2019-03-20T09:28:26.585Z,25.49
2019-03-20T09:29:35.634Z,25.49
2019-03-20T09:30:27.556Z,25.40
2019-03-20T09:31:26.544Z,23.98
2019-03-20T09:32:26.732Z,24.58
2019-03-20T09:33:26.540Z,25.40
2019-03-20T09:34:26.514Z,23.27
2019-03-20T09:35:26.552Z,23.26
2019-03-20T09:36:26.494Z,24.17
2019-03-20T09:37:26.517Z,21.53
2019-03-20T09:38:26.470Z,23.26
2019-03-20T09:39:26.474Z,23.26
2019-03-20T09:40:26.449Z,21.54
2019-03-20T09:41:26.437Z,23.06
2019-03-20T09:42:26.428Z,22.74
2019-03-20T09:43:26.419Z,21.94
2019-03-20T09:44:26.410Z,21.65
2019-03-20T09:45:26.394Z,23.08
2019-03-20T09:46:26.390Z,24.09
2019-03-20T09:47:26.395Z,22.66
2019-03-20T09:48:26.366Z,22.16
2019-03-20T09:49:26.370Z,20.95
2019-03-20T09:50:26.349Z,21.56
2019-03-20T09:51:26.343Z,22.08
2019-03-20T09:52:26.333Z,22.60
2019-03-20T09:53:26.316Z,24.22
2019-03-20T09:54:27.155Z,22.91
2019-03-20T09:55:26.293Z,23.11
2019-03-20T09:56:26.282Z,23.01
2019-03-20T09:57:26.288Z,24.92
2019-03-20T09:58:26.259Z,26.24
2019-03-20T09:59:26.252Z,25.94
2019-03-20T10:00:26.310Z,23.81
2019-03-20T10:01:26.235Z,25.32
2019-03-20T10:02:26.229Z,25.72
2019-03-20T10:03:26.220Z,24.90
2019-03-20T10:04:26.199Z,25.10
2019-03-20T10:05:26.187Z,23.57
2019-03-20T10:06:26.246Z,25.70
2019-03-20T10:07:26.178Z,25.59
2019-03-20T10:08:26.152Z,23.77
2019-03-20T10:09:26.173Z,23.55
2019-03-20T10:10:26.146Z,22.24
2019-03-20T10:11:26.136Z,24.76
2019-03-20T10:12:26.202Z,25.05
2019-03-20T10:13:26.115Z,22.23
2019-03-20T10:14:26.115Z,23.44
2019-03-20T10:15:26.120Z,23.02
2019-03-20T10:16:26.125Z,22.52
2019-03-20T10:17:26.092Z,23.52
2019-03-20T10:18:26.078Z,24.22
2019-03-20T10:19:26.062Z,23.81
2019-03-20T10:20:26.048Z,23.61
2019-03-20T10:21:26.015Z,23.39
2019-03-20T10:22:26.019Z,22.38
2019-03-20T10:23:26.003Z,20.87
2019-03-20T10:24:25.991Z,22.80
2019-03-20T10:25:26.000Z,21.79
2019-03-20T10:26:25.972Z,24.82
2019-03-20T10:27:26.009Z,23.49
2019-03-20T10:28:25.974Z,23.90
2019-03-20T10:29:25.939Z,22.78
2019-03-20T10:30:25.938Z,22.58
2019-03-20T10:31:25.924Z,22.98
2019-03-20T10:32:25.906Z,22.59
2019-03-20T10:33:25.915Z,20.86
2019-03-20T10:34:25.890Z,21.98
2019-03-20T10:35:25.873Z,20.57
2019-03-20T10:36:25.883Z,21.17
2019-03-20T10:37:25.866Z,20.76
2019-03-20T10:38:25.866Z,23.18
2019-03-20T10:39:25.831Z,21.26
2019-03-20T10:40:25.824Z,22.06
2019-03-20T10:41:25.856Z,20.45
2019-03-20T10:42:25.819Z,21.06
2019-03-20T10:43:25.815Z,20.95
2019-03-20T10:44:25.802Z,21.15
2019-03-20T10:45:25.797Z,21.25
2019-03-20T10:46:25.805Z,20.14
2019-03-20T10:47:25.782Z,20.34
2019-03-20T10:48:25.754Z,22.27
2019-03-20T10:49:25.746Z,22.56
2019-03-20T10:50:25.740Z,22.06
2019-03-20T10:51:25.724Z,21.67
2019-03-20T10:52:25.712Z,20.86
2019-03-20T10:53:25.894Z,18.85
2019-03-20T10:54:25.691Z,19.46
2019-03-20T10:55:25.682Z,19.17
2019-03-20T10:56:25.675Z,19.89
2019-03-20T10:57:25.668Z,20.80
2019-03-20T10:58:25.671Z,22.20
2019-03-20T10:59:25.636Z,20.20
2019-03-20T11:00:25.667Z,21.22
2019-03-20T11:01:25.620Z,22.82
2019-03-20T11:02:25.609Z,19.18
2019-03-20T11:03:25.638Z,20.29
2019-03-20T11:04:25.596Z,19.79
2019-03-20T11:05:25.618Z,21.00
2019-03-20T11:06:25.568Z,23.22
2019-03-20T11:07:25.563Z,22.92
2019-03-20T11:08:25.552Z,20.00
2019-03-20T11:09:25.531Z,20.00
2019-03-20T11:10:25.521Z,22.11
2019-03-20T11:11:27.373Z,23.72
2019-03-20T11:12:25.604Z,23.19
2019-03-20T11:13:25.569Z,23.70
2019-03-20T11:14:25.592Z,23.18
2019-03-20T11:15:25.477Z,23.08
2019-03-20T11:16:25.465Z,23.37
2019-03-20T11:17:25.446Z,22.36
2019-03-20T11:18:25.467Z,22.36
2019-03-20T11:19:25.426Z,22.75
2019-03-20T11:20:25.417Z,21.63
2019-03-20T11:21:25.425Z,19.21
2019-03-20T11:22:25.412Z,20.92
2019-03-20T11:23:25.400Z,19.60
2019-03-20T11:24:25.375Z,20.92
2019-03-20T11:25:25.369Z,22.11
2019-03-20T11:26:25.355Z,21.00
2019-03-20T11:27:27.594Z,20.19
2019-03-20T11:28:25.335Z,19.38
2019-03-20T11:29:25.405Z,19.09
2019-03-20T11:30:25.311Z,18.79
2019-03-20T11:31:25.297Z,18.00
2019-03-20T11:32:25.291Z,20.72
2019-03-20T11:33:25.286Z,19.51
2019-03-20T11:34:25.271Z,20.32
2019-03-20T11:35:25.255Z,19.01
2019-03-20T11:36:25.287Z,19.32
2019-03-20T11:37:25.234Z,18.62
2019-03-20T11:38:25.241Z,18.62
2019-03-20T11:39:29.551Z,18.81
2019-03-20T11:40:25.203Z,17.90
2019-03-20T11:41:25.228Z,18.60
2019-03-20T11:42:25.184Z,18.90
2019-03-20T11:43:25.183Z,20.01
2019-03-20T11:44:25.165Z,20.10
2019-03-20T11:45:25.205Z,21.90
2019-03-20T11:46:25.147Z,19.69
2019-03-20T11:47:25.131Z,21.69
2019-03-20T11:48:25.118Z,19.47
2019-03-20T11:49:25.110Z,19.77
2019-03-20T11:50:25.116Z,19.66
2019-03-20T11:51:25.122Z,19.75
2019-03-20T11:52:25.098Z,19.35
2019-03-20T11:53:25.062Z,19.65
2019-03-20T11:54:25.054Z,20.25
2019-03-20T11:55:25.045Z,18.85
2019-03-20T11:56:25.042Z,18.83
2019-03-20T11:57:25.026Z,19.73
2019-03-20T11:58:25.007Z,17.83
2019-03-20T11:59:25.006Z,18.83
2019-03-20T12:00:24.988Z,17.63
2019-03-20T12:01:24.983Z,17.83
2019-03-20T12:02:28.302Z,16.83
2019-03-20T12:03:24.956Z,17.94
2019-03-20T12:04:24.969Z,18.95
2019-03-20T12:05:24.940Z,18.75
2019-03-20T12:06:24.935Z,19.56
2019-03-20T12:07:24.918Z,19.06
2019-03-20T12:08:24.909Z,18.37
2019-03-20T12:09:24.913Z,19.97
2019-03-20T12:10:24.917Z,18.77
2019-03-20T12:11:24.878Z,17.76
2019-03-20T12:12:24.875Z,17.77
2019-03-20T12:13:24.890Z,19.87
2019-03-20T12:14:24.853Z,18.97
2019-03-20T12:15:24.841Z,20.17
2019-03-20T12:16:24.837Z,18.87
2019-03-20T12:17:24.813Z,19.07
2019-03-20T12:18:24.798Z,19.46
2019-03-20T12:19:24.814Z,18.77
2019-03-20T12:20:24.780Z,20.07
2019-03-20T12:21:24.773Z,18.18
2019-03-20T12:22:24.774Z,19.19
2019-03-20T12:23:24.781Z,20.09
2019-03-20T12:24:24.756Z,19.40
2019-03-20T12:25:24.728Z,19.70
2019-03-20T12:26:24.716Z,18.59
2019-03-20T12:27:24.711Z,17.69
2019-03-20T12:28:24.740Z,21.41
2019-03-20T12:29:24.720Z,19.80
2019-03-20T12:30:24.725Z,19.80
2019-03-20T12:31:24.665Z,20.50
2019-03-20T12:32:24.687Z,20.61
2019-03-20T12:33:24.652Z,21.70
2019-03-20T12:34:24.645Z,20.39
2019-03-20T12:35:24.656Z,22.80
2019-03-20T12:36:24.612Z,21.80
2019-03-20T12:37:24.602Z,19.60
2019-03-20T12:38:24.597Z,21.50
2019-03-20T12:39:24.588Z,22.50
2019-03-20T12:40:24.587Z,20.09
2019-03-20T12:41:24.561Z,20.19
2019-03-20T12:42:24.634Z,21.70
2019-03-20T12:43:24.556Z,20.89
2019-03-20T12:44:24.539Z,19.19
2019-03-20T12:45:24.580Z,21.40
2019-03-20T12:46:24.520Z,18.79
2019-03-20T12:47:24.528Z,19.79
2019-03-20T12:48:24.540Z,19.79
2019-03-20T12:49:24.553Z,19.29
2019-03-20T12:50:24.709Z,19.09
2019-03-20T12:51:24.508Z,18.90
2019-03-20T12:52:24.456Z,18.88